x

Ps-1126 Tabs J (42044) Weather Station

5:00pm - Mon 31st Aug 2015 All times are CDT. -5 hours from GMT.

  • Wind
    18mph, 20mph gusts
  • Sea Temp 83°f
  • Air Temp 82°f
  • Sea Pressure 1012.9mb
  • Ps-1126 Tabs J
  • Ps-1126 Tabs J

More Historic Weather Station data

Upgrade to MSW Pro to gain access to the past 30 days of data for over 8000 Wavebouys and Weather Stations around the globe.

Join Pro

Comparision Forecast

View Surf forecast
   
Mon 08/31 5:00pm 18 20 mph 1012.9mb 83f 82f
3:00pm 13 18 mph 1015.2mb 83f 82f
2:00pm 13 18 mph 1015mb 83f 82f
1:00pm 13 18 mph 1014.9mb 83f 82f
12:00pm 13 16 mph 1015.6mb 83f 81f
6:00am 16 18 mph 1013.3mb 83f 81f
5:00am 16 20 mph 1013.1mb 83f 82f
4:00am 9 13 mph 1013.4mb 83f 82f
2:00am 11 13 mph 1014.1mb 83f 82f
1:00am 9 11 mph 1014.2mb 83f 82f
12:00am 9 11 mph 1014mb 83f 82f
Sun 08/30 11:00pm 11 13 mph 1014.2mb 83f 82f
6:00pm 13 16 mph 1013.5mb 83f 83f
5:00pm 11 16 mph 1013.5mb 83f 82f
4:00pm 9 11 mph 1014mb 83f 83f
3:00pm 9 11 mph 1014.8mb 83f 83f
1:00pm 9 11 mph 1015.6mb 83f 83f
12:00pm 9
mph
1016mb 83f 83f
10:00am 4 7 mph 1015.6mb 83f 82f
9:00am 4
mph
1015mb 83f 83f
8:00am 4 7 mph 1014.9mb 83f 83f
7:00am 9
mph
1014.2mb 83f 82f
6:00am 11 13 mph 1013.8mb 83f 82f
5:00am 11 16 mph 1013.7mb 83f 82f
3:00am 13 16 mph 1014.1mb 83f 82f
12:00am 13 18 mph 1015mb 83f 83f
Sat 08/29 11:00pm 13 18 mph 1015.1mb 83f 83f
6:00pm 13 18 mph 1013.7mb 84f 82f
4:00pm 11 13 mph 1014.3mb 84f 82f
3:00pm 11 13 mph 1015mb 84f 82f
2:00pm 9 13 mph 1015.6mb 83f 82f
1:00pm 7 9 mph 1016.1mb 83f 81f
12:00pm 7 9 mph 1016.6mb 83f 81f
11:00am 4 9 mph 1016.8mb 83f 81f
10:00am 2 4 mph 1016.3mb 83f 81f
9:00am  -  2 mph 1016mb 83f 83f
8:00am  -  2 mph 1015.6mb 83f 82f
6:00am 4 7 mph 1014.8mb 83f 81f
5:00am 7 9 mph 1014.7mb 83f 81f
4:00am 7 9 mph 1014.8mb 83f 81f
3:00am 9 11 mph 1014.8mb 83f 81f
2:00am 9 13 mph 1014.7mb 83f 81f
1:00am 11 13 mph 1015.3mb 83f 81f
Fri 08/28 11:00pm 11 13 mph 1015.3mb 83f 82f
6:00pm 11 13 mph 1013.4mb 83f 83f
5:00pm 11 13 mph 1013.7mb 83f 83f
4:00pm 11 13 mph 1014.1mb 83f 83f
3:00pm 11 13 mph 1014.7mb 83f 82f
2:00pm 11 13 mph 1015.1mb 83f 82f
1:00pm 11 13 mph 1015.5mb 83f 82f
11:00am 11 13 mph 1015.6mb 83f 82f
10:00am 7 9 mph 1015.2mb 83f 81f
8:00am 7 9 mph 1014.5mb 83f 81f
7:00am 4
mph
1014.1mb 83f 81f
5:00am 4
mph
1014mb 83f 82f